createdAt,value
2022-11-02T00:01:38.921Z,9.78
2022-11-02T00:04:05.479Z,9.76
2022-11-02T00:06:32.036Z,9.74
2022-11-02T00:08:58.534Z,9.74
2022-11-02T00:11:25.017Z,9.74
2022-11-02T00:13:51.532Z,9.72
2022-11-02T00:16:21.053Z,9.71
2022-11-02T00:18:51.166Z,9.70
2022-11-02T00:21:19.377Z,9.69
2022-11-02T00:23:47.590Z,9.69
2022-11-02T00:26:14.636Z,9.70
2022-11-02T00:28:41.385Z,9.69
2022-11-02T00:31:07.907Z,9.69
2022-11-02T00:33:34.376Z,9.71
2022-11-02T00:36:00.895Z,9.71
2022-11-02T00:38:27.531Z,9.72
2022-11-02T00:40:54.026Z,9.72
2022-11-02T00:43:20.486Z,9.72
2022-11-02T00:45:47.091Z,9.72
2022-11-02T00:48:13.553Z,9.71
2022-11-02T00:50:40.064Z,9.72
2022-11-02T00:53:06.602Z,9.69
2022-11-02T00:55:33.063Z,9.67
2022-11-02T00:58:02.121Z,9.66
2022-11-02T01:00:29.210Z,9.68
2022-11-02T01:02:59.179Z,9.68
2022-11-02T01:05:25.630Z,9.67
2022-11-02T01:07:52.434Z,9.63
2022-11-02T01:10:19.093Z,9.63
2022-11-02T01:12:45.790Z,9.63
2022-11-02T01:15:12.288Z,9.63
2022-11-02T01:17:38.847Z,9.64
2022-11-02T01:20:06.324Z,9.63
2022-11-02T01:22:32.878Z,9.64
2022-11-02T01:24:59.435Z,9.63
2022-11-02T01:27:25.979Z,9.64
2022-11-02T01:29:52.453Z,9.62
2022-11-02T01:32:18.916Z,9.59
2022-11-02T01:34:45.391Z,9.58
2022-11-02T01:37:11.900Z,9.56
2022-11-02T01:39:38.389Z,9.55
2022-11-02T01:42:17.215Z,9.50
2022-11-02T01:44:44.121Z,9.56
2022-11-02T01:47:22.439Z,9.51
2022-11-02T01:49:53.830Z,9.40
2022-11-02T01:52:26.524Z,9.44
2022-11-02T01:55:04.872Z,9.38
2022-11-02T01:57:33.302Z,9.37
2022-11-02T02:00:15.995Z,9.35
2022-11-02T02:02:48.290Z,9.29
2022-11-02T02:05:17.748Z,9.31
2022-11-02T02:07:45.255Z,9.25
2022-11-02T02:10:12.269Z,9.18
2022-11-02T02:12:41.137Z,9.15
2022-11-02T02:15:08.667Z,9.09
2022-11-02T02:17:49.369Z,9.01
2022-11-02T02:20:33.906Z,8.98
2022-11-02T02:23:25.195Z,8.97
2022-11-02T02:26:16.761Z,8.89
2022-11-02T02:28:52.815Z,8.84
2022-11-02T02:31:46.092Z,8.78
2022-11-02T02:34:28.933Z,8.73
2022-11-02T02:37:03.957Z,8.72
2022-11-02T02:39:47.992Z,8.67
2022-11-02T02:42:25.763Z,8.64
2022-11-02T02:45:19.025Z,8.58
2022-11-02T02:48:00.619Z,8.56
2022-11-02T02:50:32.207Z,8.56
2022-11-02T02:53:02.363Z,8.50
2022-11-02T02:55:34.469Z,8.47
2022-11-02T02:58:03.686Z,8.46
2022-11-02T03:00:31.032Z,8.41
2022-11-02T03:03:01.566Z,8.40
2022-11-02T03:05:30.188Z,8.40
2022-11-02T03:08:01.096Z,8.36
2022-11-02T03:10:35.229Z,8.33
2022-11-02T03:13:16.721Z,8.28
2022-11-02T03:15:50.260Z,8.26
2022-11-02T03:18:33.644Z,8.26
2022-11-02T03:21:20.358Z,8.18
2022-11-02T03:24:02.931Z,8.17
2022-11-02T03:26:35.552Z,8.18
2022-11-02T03:29:01.986Z,8.15
2022-11-02T03:31:36.182Z,8.09
2022-11-02T03:34:17.575Z,8.12
2022-11-02T03:37:03.088Z,8.10
2022-11-02T03:39:35.331Z,8.06
2022-11-02T03:42:04.736Z,8.02
2022-11-02T03:44:35.466Z,8.01
2022-11-02T03:47:04.001Z,7.99
2022-11-02T03:49:32.150Z,7.95
2022-11-02T03:52:03.405Z,7.93
2022-11-02T03:54:38.884Z,7.91
2022-11-02T03:57:09.538Z,7.83
2022-11-02T03:59:36.080Z,7.86
2022-11-02T04:02:02.789Z,7.83
2022-11-02T04:04:29.481Z,7.81
2022-11-02T04:06:56.824Z,7.79
2022-11-02T04:09:23.375Z,7.78
2022-11-02T04:12:08.291Z,7.74
2022-11-02T04:14:41.080Z,7.71
2022-11-02T04:17:28.552Z,7.68
2022-11-02T04:19:56.379Z,7.65
2022-11-02T04:22:42.602Z,7.61
2022-11-02T04:25:18.787Z,7.60
2022-11-02T04:27:51.361Z,7.55
2022-11-02T04:30:20.635Z,7.52
2022-11-02T04:33:18.456Z,7.51
2022-11-02T04:35:45.011Z,7.49
2022-11-02T04:38:30.257Z,7.47
2022-11-02T04:41:16.705Z,7.47
2022-11-02T04:43:44.436Z,7.44
2022-11-02T04:46:10.885Z,7.40
2022-11-02T04:48:37.385Z,7.41
2022-11-02T04:51:03.956Z,7.39
2022-11-02T04:53:30.443Z,7.36
2022-11-02T04:55:56.953Z,7.36
2022-11-02T04:58:23.471Z,7.37
2022-11-02T05:00:49.921Z,7.36
2022-11-02T05:03:16.417Z,7.34
2022-11-02T05:05:43.671Z,7.33
2022-11-02T05:08:10.777Z,7.33
2022-11-02T05:10:37.415Z,7.34
2022-11-02T05:13:03.901Z,7.33
2022-11-02T05:15:30.474Z,7.30
2022-11-02T05:17:57.243Z,7.34
2022-11-02T05:20:23.771Z,7.32
2022-11-02T05:22:50.295Z,7.34
2022-11-02T05:25:16.864Z,7.32
2022-11-02T05:27:43.330Z,7.32
2022-11-02T05:30:10.364Z,7.33
2022-11-02T05:32:36.861Z,7.31
2022-11-02T05:35:04.189Z,7.30
2022-11-02T05:37:30.726Z,7.30
2022-11-02T05:39:58.538Z,7.32
2022-11-02T05:42:25.803Z,7.30
2022-11-02T05:44:52.277Z,7.27
2022-11-02T05:47:18.854Z,7.28
2022-11-02T05:49:45.350Z,7.29
2022-11-02T05:52:11.870Z,7.29
2022-11-02T05:54:38.377Z,7.27
2022-11-02T05:57:04.855Z,7.27
2022-11-02T05:59:31.320Z,7.27
2022-11-02T06:01:57.929Z,7.26
2022-11-02T06:04:24.494Z,7.24
2022-11-02T06:06:51.200Z,7.22
2022-11-02T06:09:17.728Z,7.21
2022-11-02T06:11:44.206Z,7.21
2022-11-02T06:14:10.777Z,7.19
2022-11-02T06:16:37.290Z,7.19
2022-11-02T06:19:03.850Z,7.15
2022-11-02T06:21:30.419Z,7.13
2022-11-02T06:23:58.970Z,7.13
2022-11-02T06:26:25.444Z,7.12
2022-11-02T06:28:52.039Z,7.11
2022-11-02T06:31:18.575Z,7.07
2022-11-02T06:33:45.652Z,7.06
2022-11-02T06:36:12.179Z,7.03
2022-11-02T06:38:38.802Z,7.03
2022-11-02T06:41:06.862Z,6.99
2022-11-02T06:43:34.437Z,6.98
2022-11-02T06:46:00.968Z,6.97
2022-11-02T06:48:34.308Z,6.95
2022-11-02T06:51:01.928Z,6.94
2022-11-02T06:53:28.666Z,6.93
2022-11-02T06:55:56.569Z,6.94
2022-11-02T06:58:24.744Z,6.92
2022-11-02T07:00:57.498Z,6.91
2022-11-02T07:03:24.324Z,6.92
2022-11-02T07:05:52.498Z,6.93
2022-11-02T07:08:20.596Z,6.92
2022-11-02T07:10:47.480Z,6.91
2022-11-02T07:13:14.595Z,6.91
2022-11-02T07:15:41.476Z,6.90
2022-11-02T07:18:08.643Z,6.91
2022-11-02T07:20:35.978Z,6.88
2022-11-02T07:23:04.371Z,6.93
2022-11-02T07:25:32.286Z,6.91
2022-11-02T07:28:00.538Z,6.91
2022-11-02T07:30:28.845Z,6.90
2022-11-02T07:32:55.415Z,6.91
2022-11-02T07:35:22.003Z,6.91
2022-11-02T07:37:59.749Z,6.91
2022-11-02T07:40:27.912Z,6.94
2022-11-02T07:42:54.730Z,6.94
2022-11-02T07:45:22.672Z,6.94
2022-11-02T07:47:50.508Z,6.95
2022-11-02T07:50:20.074Z,6.96
2022-11-02T07:52:47.939Z,7.01
2022-11-02T07:55:16.245Z,7.05
2022-11-02T07:57:43.751Z,7.10
2022-11-02T08:00:11.909Z,7.12
2022-11-02T08:02:39.448Z,7.15
2022-11-02T08:05:06.375Z,7.18
2022-11-02T08:07:32.918Z,7.23
2022-11-02T08:09:59.503Z,7.25
2022-11-02T08:12:26.784Z,7.26
2022-11-02T08:14:53.313Z,7.28
2022-11-02T08:17:19.818Z,7.31
2022-11-02T08:19:46.300Z,7.33
2022-11-02T08:22:12.900Z,7.39
2022-11-02T08:24:39.665Z,7.42
2022-11-02T08:27:07.406Z,7.46
2022-11-02T08:29:35.222Z,7.51
2022-11-02T08:32:01.739Z,7.57
2022-11-02T08:34:28.242Z,7.65
2022-11-02T08:36:54.822Z,7.72
2022-11-02T08:39:21.340Z,7.78
2022-11-02T08:41:47.810Z,7.86
2022-11-02T08:44:14.245Z,7.95
2022-11-02T08:46:40.826Z,8.04
2022-11-02T08:49:07.341Z,8.10
2022-11-02T08:51:34.032Z,8.15
2022-11-02T08:54:00.602Z,8.20
2022-11-02T08:56:27.098Z,8.25
2022-11-02T08:58:53.561Z,8.30
2022-11-02T09:01:20.175Z,8.35
2022-11-02T09:03:46.672Z,8.37
2022-11-02T09:06:13.147Z,8.43
2022-11-02T09:08:39.629Z,8.46
2022-11-02T09:11:06.284Z,8.49
2022-11-02T09:13:32.952Z,8.55
2022-11-02T09:16:00.194Z,8.59
2022-11-02T09:18:26.943Z,8.62
2022-11-02T09:20:53.405Z,8.68
2022-11-02T09:23:21.573Z,8.70
2022-11-02T09:25:49.009Z,8.78
2022-11-02T09:28:15.870Z,8.85
2022-11-02T09:30:43.049Z,8.90
2022-11-02T09:33:10.614Z,8.98
2022-11-02T09:35:40.564Z,9.00
2022-11-02T09:38:07.632Z,9.09
2022-11-02T09:40:45.218Z,9.17
2022-11-02T09:43:38.577Z,9.23
2022-11-02T09:46:08.582Z,9.30
2022-11-02T09:48:43.314Z,9.33
2022-11-02T09:51:14.848Z,9.43
2022-11-02T09:53:55.022Z,9.55
2022-11-02T09:56:21.709Z,9.61
2022-11-02T09:58:57.414Z,9.68
2022-11-02T10:01:37.938Z,9.79
2022-11-02T10:04:10.457Z,9.85
2022-11-02T10:06:40.217Z,9.91
2022-11-02T10:12:19.181Z,10.02
2022-11-02T10:15:02.309Z,10.07
2022-11-02T10:17:32.933Z,10.15
2022-11-02T10:20:05.647Z,10.17
2022-11-02T10:22:42.531Z,10.25
2022-11-02T10:25:16.355Z,10.33
2022-11-02T10:27:46.130Z,10.37
2022-11-02T10:30:18.522Z,10.45
2022-11-02T10:32:49.925Z,10.50
2022-11-02T10:35:37.163Z,10.53
2022-11-02T10:38:30.086Z,10.64
2022-11-02T10:41:35.198Z,10.71
2022-11-02T10:44:04.765Z,10.78
2022-11-02T10:46:43.494Z,10.85
2022-11-02T10:49:30.287Z,10.90
2022-11-02T10:51:56.913Z,10.96
2022-11-02T10:54:31.745Z,11.00
2022-11-02T10:57:10.597Z,11.05
2022-11-02T10:59:37.116Z,11.10
2022-11-02T11:02:13.704Z,11.14
2022-11-02T11:04:41.724Z,11.15
2022-11-02T11:07:21.007Z,11.19
2022-11-02T11:09:52.884Z,11.22
2022-11-02T11:12:26.012Z,11.23
2022-11-02T11:20:34.731Z,11.27
2022-11-02T11:23:15.523Z,11.32
2022-11-02T11:25:42.958Z,11.33
2022-11-02T11:28:43.208Z,11.37
2022-11-02T11:31:13.394Z,11.37
2022-11-02T11:33:56.021Z,11.42
2022-11-02T11:36:22.526Z,11.43
2022-11-02T11:38:50.656Z,11.45
2022-11-02T11:41:17.710Z,11.47
2022-11-02T11:43:46.251Z,11.50
2022-11-02T11:46:14.510Z,11.52
2022-11-02T11:48:45.600Z,11.55
2022-11-02T11:51:25.201Z,11.59
2022-11-02T11:54:19.600Z,11.64
2022-11-02T11:56:47.876Z,11.64
2022-11-02T11:59:25.328Z,11.68
2022-11-02T12:01:56.682Z,11.73
2022-11-02T12:04:31.838Z,11.77
2022-11-02T12:07:23.923Z,11.79
2022-11-02T12:10:06.905Z,11.83
2022-11-02T12:13:01.302Z,11.83
2022-11-02T12:15:41.203Z,11.87
2022-11-02T12:18:32.785Z,11.90
2022-11-02T12:21:14.302Z,11.94
2022-11-02T12:23:50.076Z,11.97
2022-11-02T12:26:30.367Z,12.00
2022-11-02T12:29:12.817Z,12.04
2022-11-02T12:31:43.923Z,12.06
2022-11-02T12:34:28.953Z,12.11
2022-11-02T12:37:41.028Z,12.15
2022-11-02T12:40:33.430Z,12.18
2022-11-02T12:43:26.049Z,12.21
2022-11-02T12:45:58.052Z,12.23
2022-11-02T12:48:39.732Z,12.30
2022-11-02T12:51:10.133Z,12.33
2022-11-02T12:53:37.325Z,12.37
2022-11-02T12:56:08.235Z,12.40
2022-11-02T12:58:37.343Z,12.48
2022-11-02T13:01:13.682Z,12.55
2022-11-02T13:03:51.683Z,12.62
2022-11-02T13:06:29.635Z,12.71
2022-11-02T13:09:08.445Z,12.85
2022-11-02T13:11:40.933Z,12.99
2022-11-02T13:14:15.518Z,13.14
2022-11-02T13:16:54.575Z,13.29
2022-11-02T13:19:33.301Z,13.38
2022-11-02T13:22:01.116Z,13.42
2022-11-02T13:24:33.232Z,13.46
2022-11-02T13:27:14.284Z,13.52
2022-11-02T13:29:46.785Z,13.48
2022-11-02T13:32:33.965Z,13.46
2022-11-02T13:35:12.723Z,13.51
2022-11-02T13:37:43.558Z,13.52
2022-11-02T13:40:26.190Z,13.53
2022-11-02T13:42:58.871Z,13.57
2022-11-02T13:45:58.058Z,13.58
2022-11-02T13:49:00.104Z,13.59
2022-11-02T13:51:49.810Z,13.63
2022-11-02T13:54:30.497Z,13.63
2022-11-02T13:56:58.852Z,13.64
2022-11-02T13:59:43.258Z,13.61
2022-11-02T14:02:16.528Z,13.65
2022-11-02T14:04:44.405Z,13.66
2022-11-02T14:07:38.797Z,13.69
2022-11-02T14:10:15.101Z,13.65
2022-11-02T14:12:49.667Z,13.69
2022-11-02T14:15:16.109Z,13.70
2022-11-02T14:17:55.119Z,13.68
2022-11-02T14:20:40.654Z,13.68
2022-11-02T14:23:10.427Z,13.68
2022-11-02T14:25:46.169Z,13.68
2022-11-02T14:28:21.843Z,13.68
2022-11-02T14:31:17.765Z,13.69
2022-11-02T14:33:56.964Z,13.71
2022-11-02T14:36:44.496Z,13.71
2022-11-02T14:39:40.696Z,13.69
2022-11-02T14:42:32.391Z,13.72
2022-11-02T14:45:07.799Z,13.72
2022-11-02T14:47:38.831Z,13.71
2022-11-02T14:50:14.899Z,13.73
2022-11-02T14:52:53.304Z,13.73
2022-11-02T14:55:23.263Z,13.76
2022-11-02T14:57:57.900Z,13.76
2022-11-02T15:00:29.742Z,13.76
2022-11-02T15:02:57.427Z,13.76
2022-11-02T15:05:29.820Z,13.77
2022-11-02T15:08:00.030Z,13.76
2022-11-02T15:10:32.493Z,13.73
2022-11-02T15:13:19.242Z,13.73
2022-11-02T15:15:51.813Z,13.72
2022-11-02T15:18:32.943Z,13.71
2022-11-02T15:21:11.939Z,13.69
2022-11-02T15:23:50.511Z,13.67
2022-11-02T15:26:35.543Z,13.66
2022-11-02T15:29:14.362Z,13.65
2022-11-02T15:31:43.211Z,13.67
2022-11-02T15:34:18.706Z,13.65
2022-11-02T15:36:46.135Z,13.66
2022-11-02T15:39:12.860Z,13.66
2022-11-02T15:41:48.506Z,13.66
2022-11-02T15:44:23.884Z,13.66
2022-11-02T15:47:20.755Z,13.66
2022-11-02T15:50:29.773Z,13.67
2022-11-02T15:53:24.550Z,13.60
2022-11-02T15:56:18.793Z,13.63
2022-11-02T15:59:03.557Z,13.63
2022-11-02T16:01:30.135Z,13.62
2022-11-02T16:04:07.616Z,13.61
2022-11-02T16:06:40.341Z,13.57
2022-11-02T16:09:28.687Z,13.50
2022-11-02T16:12:16.855Z,13.41
2022-11-02T16:14:46.211Z,13.37
2022-11-02T16:17:26.535Z,13.34
2022-11-02T16:20:08.875Z,13.29
2022-11-02T16:22:36.503Z,13.26
2022-11-02T16:25:11.635Z,13.25
2022-11-02T16:27:39.065Z,13.25
2022-11-02T16:30:06.348Z,13.22
2022-11-02T16:32:33.122Z,13.19
2022-11-02T16:35:01.083Z,13.17
2022-11-02T16:37:27.744Z,13.17
2022-11-02T16:39:54.394Z,13.13
2022-11-02T16:42:25.064Z,13.12
2022-11-02T16:45:01.350Z,13.08
2022-11-02T16:47:40.383Z,13.08
2022-11-02T16:50:36.208Z,13.03
2022-11-02T16:53:02.768Z,13.01
2022-11-02T16:55:47.479Z,12.99
2022-11-02T16:58:22.546Z,12.96
2022-11-02T17:00:55.468Z,12.93
2022-11-02T17:03:26.187Z,12.90
2022-11-02T17:05:54.069Z,12.89
2022-11-02T17:08:28.621Z,12.86
2022-11-02T17:10:59.164Z,12.87
2022-11-02T17:13:27.054Z,12.86
2022-11-02T17:16:06.506Z,12.85
2022-11-02T17:18:33.134Z,12.84
2022-11-02T17:21:27.338Z,12.82
2022-11-02T17:23:55.384Z,12.84
2022-11-02T17:26:37.640Z,12.77
2022-11-02T17:29:26.806Z,12.80
2022-11-02T17:32:00.976Z,12.79
2022-11-02T17:34:27.833Z,12.79
2022-11-02T17:36:55.089Z,12.78
2022-11-02T17:39:21.839Z,12.77
2022-11-02T17:42:17.260Z,12.75
2022-11-02T17:44:45.683Z,12.73
2022-11-02T17:47:14.236Z,12.72
2022-11-02T17:49:40.824Z,12.72
2022-11-02T17:52:10.206Z,12.71
2022-11-02T17:54:36.741Z,12.71
2022-11-02T17:57:08.589Z,12.69
2022-11-02T17:59:35.161Z,12.69
2022-11-02T18:02:01.798Z,12.67
2022-11-02T18:04:28.381Z,12.66
2022-11-02T18:06:54.948Z,12.65
2022-11-02T18:09:23.976Z,12.67
2022-11-02T18:11:50.448Z,12.68
2022-11-02T18:14:17.176Z,12.69
2022-11-02T18:16:44.235Z,12.71
2022-11-02T18:19:10.727Z,12.70
2022-11-02T18:21:37.473Z,12.70
2022-11-02T18:24:04.035Z,12.71
2022-11-02T18:26:30.656Z,12.72
2022-11-02T18:28:57.735Z,12.73
2022-11-02T18:31:24.447Z,12.75
2022-11-02T18:33:52.862Z,12.75
2022-11-02T18:36:19.739Z,12.76
2022-11-02T18:38:46.307Z,12.77
2022-11-02T18:41:29.568Z,12.79
2022-11-02T18:44:04.120Z,12.79
2022-11-02T18:46:34.256Z,12.81
2022-11-02T18:49:00.739Z,12.81
2022-11-02T18:51:27.832Z,12.81
2022-11-02T18:53:59.997Z,12.83
2022-11-02T18:56:26.977Z,12.82
2022-11-02T18:58:54.575Z,12.86
2022-11-02T19:01:23.056Z,12.85
2022-11-02T19:03:51.779Z,12.85
2022-11-02T19:06:38.514Z,12.85
2022-11-02T19:09:18.510Z,12.86
2022-11-02T19:12:01.871Z,12.84
2022-11-02T19:14:37.673Z,12.86
2022-11-02T19:17:05.543Z,12.87
2022-11-02T19:19:32.620Z,12.85
2022-11-02T19:21:59.841Z,12.86
2022-11-02T19:24:26.568Z,12.87
2022-11-02T19:26:53.183Z,12.85
2022-11-02T19:29:19.955Z,12.87
2022-11-02T19:31:46.843Z,12.86
2022-11-02T19:34:13.773Z,12.85
2022-11-02T19:36:40.696Z,12.85
2022-11-02T19:39:09.272Z,12.86
2022-11-02T19:41:38.057Z,12.87
2022-11-02T19:44:04.920Z,12.87
2022-11-02T19:46:31.625Z,12.85
2022-11-02T19:48:58.252Z,12.87
2022-11-02T19:51:28.251Z,12.82
2022-11-02T19:53:58.423Z,12.85
2022-11-02T19:56:27.509Z,12.86
2022-11-02T19:58:55.157Z,12.86
2022-11-02T20:01:29.825Z,12.84
2022-11-02T20:03:57.379Z,12.85
2022-11-02T20:06:31.157Z,12.82
2022-11-02T20:08:58.702Z,12.84
2022-11-02T20:11:29.534Z,12.79
2022-11-02T20:13:58.352Z,12.81
2022-11-02T20:16:25.427Z,12.80
2022-11-02T20:18:53.494Z,12.78
2022-11-02T20:21:31.040Z,12.77
2022-11-02T20:24:00.666Z,12.76
2022-11-02T20:26:31.250Z,12.71
2022-11-02T20:28:59.804Z,12.70
2022-11-02T20:31:32.060Z,12.69
2022-11-02T20:33:59.697Z,12.70
2022-11-02T20:36:27.274Z,12.65
2022-11-02T20:38:54.890Z,12.65
2022-11-02T20:41:23.755Z,12.64
2022-11-02T20:43:52.665Z,12.58
2022-11-02T20:46:40.149Z,12.57
2022-11-02T20:49:20.665Z,12.58
2022-11-02T20:51:55.286Z,12.57
2022-11-02T20:54:22.360Z,12.53
2022-11-02T20:56:49.752Z,12.55
2022-11-02T20:59:16.432Z,12.55
2022-11-02T21:01:43.085Z,12.53
2022-11-02T21:04:11.785Z,12.49
2022-11-02T21:06:40.597Z,12.46
2022-11-02T21:09:10.968Z,12.43
2022-11-02T21:11:57.567Z,12.38
2022-11-02T21:14:24.079Z,12.37
2022-11-02T21:16:50.740Z,12.32
2022-11-02T21:19:17.234Z,12.28
2022-11-02T21:21:43.735Z,12.26
2022-11-02T21:24:10.612Z,12.24
2022-11-02T21:26:37.291Z,12.24
2022-11-02T21:29:04.060Z,12.13
2022-11-02T21:31:30.694Z,12.12
2022-11-02T21:33:57.378Z,12.13
2022-11-02T21:36:23.913Z,12.15
2022-11-02T21:38:50.482Z,12.10
2022-11-02T21:41:22.274Z,12.11
2022-11-02T21:43:52.037Z,12.07
2022-11-02T21:46:19.857Z,12.05
2022-11-02T21:48:46.921Z,12.05
2022-11-02T21:51:14.864Z,12.03
2022-11-02T21:53:44.132Z,11.97
2022-11-02T21:56:13.268Z,11.93
2022-11-02T21:58:44.685Z,11.92
2022-11-02T22:01:40.797Z,11.93
2022-11-02T22:04:08.298Z,11.90
2022-11-02T22:06:37.462Z,11.90
2022-11-02T22:09:06.259Z,11.87
2022-11-02T22:11:33.032Z,11.87
2022-11-02T22:14:00.639Z,11.88
2022-11-02T22:16:34.967Z,11.82
2022-11-02T22:19:21.815Z,11.82
2022-11-02T22:21:49.588Z,11.81
2022-11-02T22:24:16.197Z,11.83
2022-11-02T22:26:42.653Z,11.82
2022-11-02T22:29:09.708Z,11.78
2022-11-02T22:31:39.662Z,11.77
2022-11-02T22:34:08.291Z,11.78
2022-11-02T22:36:35.862Z,11.78
2022-11-02T22:39:04.956Z,11.74
2022-11-02T22:41:33.954Z,11.77
2022-11-02T22:44:02.992Z,11.77
2022-11-02T22:46:31.172Z,11.75
2022-11-02T22:48:59.397Z,11.72
2022-11-02T22:51:28.551Z,11.66
2022-11-02T22:53:55.613Z,11.70
2022-11-02T22:56:23.486Z,11.71
2022-11-02T22:58:51.449Z,11.73
2022-11-02T23:01:21.013Z,11.68
2022-11-02T23:03:48.592Z,11.66
2022-11-02T23:06:16.062Z,11.66
2022-11-02T23:08:45.709Z,11.66
2022-11-02T23:11:22.754Z,11.65
2022-11-02T23:14:01.087Z,11.64
2022-11-02T23:16:42.191Z,11.68
2022-11-02T23:19:22.062Z,11.69
2022-11-02T23:22:18.904Z,11.71
2022-11-02T23:25:07.596Z,11.65
2022-11-02T23:27:56.265Z,11.65
2022-11-02T23:30:42.569Z,11.67
2022-11-02T23:33:09.302Z,11.65
2022-11-02T23:35:54.296Z,11.67
2022-11-02T23:38:20.982Z,11.66
2022-11-02T23:40:47.456Z,11.62
2022-11-02T23:43:13.897Z,11.61
2022-11-02T23:45:40.602Z,11.60
2022-11-02T23:48:08.465Z,11.57
2022-11-02T23:50:53.840Z,11.53
2022-11-02T23:53:53.277Z,11.52
2022-11-02T23:56:38.292Z,11.52
2022-11-02T23:59:07.487Z,11.51
